Time;durP1;ratioP1;P1;durP2;ratioP2;P2;SDS_P1;SDS_P2;PMS_P1;PMS_P2;Temp;Humidity;BMP_temperature;BMP_pressure;BME280_temperature;BME280_humidity;BME280_pressure;Samples;Min_cycle;Max_cycle;Signal;HPM_P1;HPM_P2
2022/11/21 00:00:34;;;;;;;39.00;22.20;;;8.90;99.90;;;;;;5065680;28;20033;-74
2022/11/21 00:03:01;;;;;;;27.67;14.13;;;9.00;99.90;;;;;;5065745;28;20528;-74
2022/11/21 00:05:28;;;;;;;29.27;16.17;;;9.00;99.90;;;;;;5078178;28;20020;-74
2022/11/21 00:07:55;;;;;;;40.15;22.48;;;9.00;99.90;;;;;;5063805;28;20052;-74
2022/11/21 00:10:21;;;;;;;117.78;70.50;;;9.00;99.90;;;;;;5076025;28;20026;-74
2022/11/21 00:12:47;;;;;;;56.35;33.92;;;9.00;99.90;;;;;;5074108;28;20021;-74
2022/11/21 00:15:13;;;;;;;62.25;36.30;;;8.90;99.90;;;;;;5077099;28;20108;-74
2022/11/21 00:17:39;;;;;;;11.68;5.78;;;8.80;99.90;;;;;;5061666;28;20029;-74
2022/11/21 00:20:05;;;;;;;18.55;5.68;;;8.80;99.90;;;;;;5068844;28;20037;-74
2022/11/21 00:22:31;;;;;;;20.88;4.72;;;8.70;99.90;;;;;;5074382;28;20508;-74
2022/11/21 00:24:58;;;;;;;143.02;91.72;;;8.70;99.90;;;;;;5062735;28;20052;-75
2022/11/21 00:27:23;;;;;;;82.07;49.75;;;8.60;99.90;;;;;;5065694;28;20032;-74
2022/11/21 00:29:49;;;;;;;67.00;40.83;;;8.60;99.90;;;;;;5063578;28;20481;-74
2022/11/21 00:32:15;;;;;;;183.88;110.28;;;8.50;99.90;;;;;;5066156;28;20024;-74
2022/11/21 00:34:41;;;;;;;159.05;94.80;;;8.50;99.90;;;;;;5066298;28;20111;-74
2022/11/21 00:37:06;;;;;;;88.68;52.60;;;8.40;99.90;;;;;;5067921;28;20044;-74
2022/11/21 00:39:32;;;;;;;15.10;8.57;;;8.40;99.90;;;;;;5063379;28;20021;-74
2022/11/21 00:41:58;;;;;;;21.23;11.98;;;8.40;99.90;;;;;;5060346;28;20029;-74
2022/11/21 00:44:24;;;;;;;18.65;6.25;;;8.40;99.90;;;;;;5070771;28;20025;-74
2022/11/21 00:46:49;;;;;;;43.55;26.23;;;8.40;99.90;;;;;;5061158;28;20024;-74
2022/11/21 00:49:15;;;;;;;35.33;18.83;;;8.30;99.90;;;;;;5072360;28;20128;-74
2022/11/21 00:51:41;;;;;;;30.42;6.63;;;8.30;99.90;;;;;;5074486;28;20027;-74
2022/11/21 00:54:08;;;;;;;18.95;6.75;;;8.30;99.90;;;;;;5071711;28;20603;-73
2022/11/21 00:56:33;;;;;;;21.98;5.32;;;8.40;99.90;;;;;;5073128;28;20049;-74
2022/11/21 00:58:59;;;;;;;28.60;14.07;;;8.40;99.90;;;;;;5065089;28;20070;-74
2022/11/21 01:01:25;;;;;;;13.13;5.57;;;8.40;99.90;;;;;;5065835;28;20029;-74
2022/11/21 01:03:51;;;;;;;36.90;19.90;;;8.40;99.90;;;;;;5065539;28;20025;-74
2022/11/21 01:06:17;;;;;;;23.90;5.78;;;8.50;99.90;;;;;;5069863;28;20467;-74
2022/11/21 01:08:43;;;;;;;11.35;8.27;;;8.50;99.90;;;;;;5068104;28;20070;-74
2022/11/21 01:11:12;;;;;;;17.23;10.52;;;8.40;99.90;;;;;;5078627;28;20028;-74
2022/11/21 01:13:39;;;;;;;19.38;9.32;;;8.40;99.90;;;;;;5069357;28;20401;-74
2022/11/21 01:16:09;;;;;;;150.05;104.55;;;8.40;99.90;;;;;;5070443;28;20033;-74
2022/11/21 01:18:35;;;;;;;36.37;20.67;;;8.40;99.90;;;;;;5066556;28;20020;-74
2022/11/21 01:21:22;;;;;;;19.60;6.75;;;8.40;99.90;;;;;;5068552;28;20028;-74
2022/11/21 01:23:48;;;;;;;22.98;10.65;;;8.40;99.90;;;;;;5064721;28;20412;-74
2022/11/21 01:26:16;;;;;;;24.90;7.90;;;8.40;99.90;;;;;;5071113;28;20020;-74
2022/11/21 01:28:42;;;;;;;16.90;10.15;;;8.40;99.90;;;;;;5062925;28;20396;-74
2022/11/21 01:31:10;;;;;;;33.42;19.40;;;8.40;99.90;;;;;;5077777;28;20025;-74
2022/11/21 01:33:37;;;;;;;27.90;13.82;;;8.40;99.90;;;;;;5063950;28;20488;-74
2022/11/21 01:36:06;;;;;;;42.67;26.52;;;8.40;99.90;;;;;;5065645;28;20021;-74
2022/11/21 01:38:33;;;;;;;16.73;7.28;;;8.40;99.90;;;;;;5065789;28;20029;-74
2022/11/21 01:40:58;;;;;;;21.23;6.60;;;8.40;99.90;;;;;;5062055;28;20028;-74
2022/11/21 01:43:24;;;;;;;12.48;5.90;;;8.40;99.90;;;;;;5060283;28;20033;-74
2022/11/21 01:45:58;;;;;;;63.83;43.10;;;8.40;99.90;;;;;;5072886;28;20031;-74
2022/11/21 01:48:29;;;;;;;38.95;26.73;;;8.40;99.90;;;;;;5060858;28;20051;-74
2022/11/21 01:50:59;;;;;;;29.08;15.82;;;8.50;99.90;;;;;;5069866;28;20488;-74
2022/11/21 01:53:25;;;;;;;17.17;9.30;;;8.50;99.90;;;;;;5059552;28;20029;-74
2022/11/21 01:55:52;;;;;;;56.35;34.63;;;8.50;99.90;;;;;;5066220;28;20028;-74
2022/11/21 01:58:19;;;;;;;41.00;22.23;;;8.50;99.90;;;;;;5065897;28;20063;-74
2022/11/21 02:00:46;;;;;;;45.42;27.15;;;8.50;99.90;;;;;;5074761;28;20451;-74
2022/11/21 02:03:16;;;;;;;47.05;33.03;;;8.50;99.90;;;;;;5062464;28;20033;-74
2022/11/21 02:05:42;;;;;;;59.42;37.83;;;8.50;99.90;;;;;;5074827;28;20017;-74
2022/11/21 02:08:19;;;;;;;46.60;29.35;;;8.40;99.90;;;;;;5064255;28;20037;-74
2022/11/21 02:11:09;;;;;;;20.45;11.52;;;8.50;99.90;;;;;;5074268;28;20013;-74
2022/11/21 02:13:34;;;;;;;25.98;10.80;;;8.40;99.90;;;;;;5042986;28;20036;-74
2022/11/21 02:16:01;;;;;;;69.95;47.00;;;8.40;99.90;;;;;;5075329;28;20013;-74
2022/11/21 02:18:27;;;;;;;39.05;28.02;;;8.40;99.90;;;;;;5068980;28;20111;-74
2022/11/21 02:21:04;;;;;;;98.18;65.93;;;8.50;99.90;;;;;;5068463;28;20048;-74
2022/11/21 02:23:47;;;;;;;37.42;21.90;;;8.40;99.90;;;;;;5062639;28;20485;-74
2022/11/21 02:26:13;;;;;;;31.13;22.55;;;8.50;99.90;;;;;;5066115;28;20025;-74
2022/11/21 02:28:38;;;;;;;46.85;35.67;;;8.40;99.90;;;;;;5064584;28;20024;-74
2022/11/21 02:31:04;;;;;;;98.25;66.40;;;8.50;99.90;;;;;;5069844;28;20040;-74
2022/11/21 02:33:30;;;;;;;39.20;23.45;;;8.40;99.90;;;;;;5061643;28;20029;-74
2022/11/21 02:35:58;;;;;;;46.20;29.75;;;8.40;99.90;;;;;;5066682;28;20019;-74
2022/11/21 02:38:28;;;;;;;16.60;11.15;;;8.40;99.90;;;;;;5064841;28;20115;-74
2022/11/21 02:41:25;;;;;;;40.88;26.45;;;8.40;99.90;;;;;;5057618;28;20489;-75
2022/11/21 02:43:58;;;;;;;19.92;10.23;;;8.40;99.90;;;;;;5068687;28;20116;-75
2022/11/21 02:46:27;;;;;;;13.10;6.55;;;8.50;99.90;;;;;;5073176;28;20108;-74
2022/11/21 02:48:56;;;;;;;19.40;6.27;;;8.50;99.90;;;;;;5062172;28;20094;-74
2022/11/21 02:51:22;;;;;;;34.35;19.35;;;8.60;99.90;;;;;;5071765;28;20036;-74
2022/11/21 02:53:48;;;;;;;26.70;12.77;;;8.60;99.90;;;;;;5070449;28;20048;-74
2022/11/21 02:56:13;;;;;;;18.20;10.65;;;8.60;99.90;;;;;;5070369;28;20377;-74
2022/11/21 02:58:39;;;;;;;55.13;45.22;;;8.60;99.90;;;;;;5069973;28;20433;-74
2022/11/21 03:01:05;;;;;;;18.10;7.10;;;8.50;99.90;;;;;;5071134;28;20103;-74
2022/11/21 03:03:31;;;;;;;55.20;38.70;;;8.50;99.90;;;;;;5064832;28;20031;-74
2022/11/21 03:05:56;;;;;;;23.77;12.88;;;8.60;99.90;;;;;;5071484;28;20025;-74
2022/11/21 03:08:22;;;;;;;25.63;14.90;;;8.60;99.90;;;;;;5064178;28;20029;-74
2022/11/21 03:10:48;;;;;;;27.15;13.07;;;8.60;99.90;;;;;;5075048;28;20052;-74
2022/11/21 03:13:14;;;;;;;36.05;21.13;;;8.60;99.90;;;;;;5070687;28;20024;-74
2022/11/21 03:15:39;;;;;;;38.33;21.98;;;8.60;99.90;;;;;;5068034;28;20052;-74
2022/11/21 03:18:05;;;;;;;30.30;17.10;;;8.60;99.90;;;;;;5060937;28;20029;-74
2022/11/21 03:20:33;;;;;;;26.20;12.73;;;8.60;99.90;;;;;;5064139;28;20027;-74
2022/11/21 03:22:59;;;;;;;19.52;7.03;;;8.60;99.90;;;;;;5068011;28;20032;-74
2022/11/21 03:25:25;;;;;;;28.38;12.00;;;8.60;99.90;;;;;;5064981;28;20865;-74
2022/11/21 03:27:52;;;;;;;13.35;5.20;;;8.60;99.90;;;;;;5071575;28;20021;-74
2022/11/21 03:30:20;;;;;;;37.75;22.80;;;8.60;99.90;;;;;;5065092;28;20024;-74
2022/11/21 03:32:46;;;;;;;14.98;5.03;;;8.60;99.90;;;;;;5059288;28;20144;-74
2022/11/21 03:35:12;;;;;;;11.23;4.90;;;8.60;99.90;;;;;;5068662;28;20024;-74
2022/11/21 03:37:38;;;;;;;14.65;5.15;;;8.70;99.90;;;;;;5059248;28;20037;-73
2022/11/21 03:40:04;;;;;;;33.15;23.38;;;8.60;99.90;;;;;;5067779;28;20017;-73
2022/11/21 03:42:30;;;;;;;41.22;25.88;;;8.60;99.90;;;;;;5065025;28;20040;-73
2022/11/21 03:44:55;;;;;;;24.10;8.13;;;8.60;99.90;;;;;;5069340;28;20025;-74
2022/11/21 03:47:23;;;;;;;15.90;6.00;;;8.60;99.90;;;;;;5065872;28;20068;-74
2022/11/21 03:49:49;;;;;;;17.77;7.15;;;8.60;99.90;;;;;;5073625;28;20028;-74
2022/11/21 03:52:15;;;;;;;30.85;6.75;;;8.60;99.90;;;;;;5070078;28;20598;-73
2022/11/21 03:54:40;;;;;;;22.17;8.63;;;8.70;99.90;;;;;;5070648;28;20021;-73
2022/11/21 03:57:06;;;;;;;31.20;14.32;;;8.60;99.90;;;;;;5070696;28;20124;-74
2022/11/21 03:59:32;;;;;;;19.55;8.95;;;8.70;99.90;;;;;;5071155;28;20017;-73
2022/11/21 04:01:58;;;;;;;22.80;8.85;;;8.70;99.90;;;;;;5066499;28;20059;-73
2022/11/21 04:04:23;;;;;;;15.35;8.05;;;8.70;99.90;;;;;;5074019;28;20086;-73
2022/11/21 04:06:49;;;;;;;20.45;8.93;;;8.70;99.90;;;;;;5063319;28;20025;-74
2022/11/21 04:09:15;;;;;;;24.17;8.23;;;8.70;99.90;;;;;;5071650;28;20020;-73
2022/11/21 04:11:41;;;;;;;30.83;9.80;;;8.70;99.90;;;;;;5073878;28;20020;-74
2022/11/21 04:14:07;;;;;;;25.70;9.93;;;8.70;99.90;;;;;;5068312;28;20091;-74
2022/11/21 04:16:32;;;;;;;28.67;9.65;;;8.70;99.90;;;;;;5063457;28;20028;-73
2022/11/21 04:18:58;;;;;;;20.65;8.52;;;8.70;99.90;;;;;;5064174;28;20134;-74
2022/11/21 04:21:24;;;;;;;20.67;8.05;;;8.70;99.90;;;;;;5066721;28;20025;-73
2022/11/21 04:23:50;;;;;;;21.73;8.95;;;8.80;99.90;;;;;;5065251;28;20041;-73
2022/11/21 04:26:15;;;;;;;17.48;8.20;;;8.80;99.90;;;;;;5066573;28;20043;-73
2022/11/21 04:28:41;;;;;;;42.28;26.08;;;8.70;99.90;;;;;;5060708;28;20512;-74
2022/11/21 04:31:08;;;;;;;21.10;9.27;;;8.70;99.90;;;;;;5068499;28;20024;-74
2022/11/21 04:33:34;;;;;;;22.60;10.23;;;8.80;99.90;;;;;;5064503;28;20088;-73
2022/11/21 04:36:00;;;;;;;15.50;7.38;;;8.70;99.90;;;;;;5070000;28;20456;-73
2022/11/21 04:38:25;;;;;;;18.60;8.38;;;8.80;99.90;;;;;;5064899;28;20029;-74
2022/11/21 04:40:51;;;;;;;18.70;8.45;;;8.80;99.90;;;;;;5065239;28;20033;-74
2022/11/21 04:43:18;;;;;;;25.77;8.95;;;8.80;99.90;;;;;;5066933;28;20073;-74
2022/11/21 04:45:44;;;;;;;16.63;7.57;;;8.70;99.90;;;;;;5075557;28;20024;-74
2022/11/21 04:48:11;;;;;;;22.50;8.00;;;8.80;99.90;;;;;;5071341;28;20500;-74
2022/11/21 04:50:36;;;;;;;48.60;32.15;;;8.70;99.90;;;;;;5076080;28;20129;-73
2022/11/21 04:53:02;;;;;;;20.23;9.32;;;8.70;99.90;;;;;;5066247;28;20032;-73
2022/11/21 04:55:30;;;;;;;25.95;7.90;;;8.70;99.90;;;;;;5066924;28;20477;-73
2022/11/21 04:57:57;;;;;;;20.88;8.30;;;8.70;99.90;;;;;;5066272;28;20025;-73
2022/11/21 05:00:23;;;;;;;23.27;8.88;;;8.70;99.90;;;;;;5077746;28;20024;-74
2022/11/21 05:02:49;;;;;;;20.75;8.05;;;8.70;99.90;;;;;;5068357;28;20506;-73
2022/11/21 05:05:15;;;;;;;30.73;16.42;;;8.70;99.90;;;;;;5076053;28;20396;-74
2022/11/21 05:07:40;;;;;;;27.95;16.52;;;8.70;99.90;;;;;;5070292;28;20025;-74
2022/11/21 05:10:07;;;;;;;15.13;7.78;;;8.70;99.90;;;;;;5073596;28;20123;-74
2022/11/21 05:15:18;;;;;;;26.20;8.05;;;8.70;99.90;;;;;;5071819;28;20067;-73
2022/11/21 05:17:44;;;;;;;22.35;7.57;;;8.70;99.90;;;;;;5064546;28;20020;-74
2022/11/21 05:20:10;;;;;;;35.70;24.25;;;8.70;99.90;;;;;;5062599;28;20110;-73
2022/11/21 05:22:36;;;;;;;23.45;10.52;;;8.80;99.90;;;;;;5072375;28;20100;-73
2022/11/21 05:25:02;;;;;;;20.60;7.47;;;8.80;99.90;;;;;;5066620;28;20052;-73
2022/11/21 05:27:28;;;;;;;24.48;8.00;;;8.80;99.90;;;;;;5073701;28;20020;-73
2022/11/21 05:29:54;;;;;;;24.70;7.75;;;8.80;99.90;;;;;;5061224;28;20457;-73
2022/11/21 05:32:20;;;;;;;22.10;8.45;;;8.80;99.90;;;;;;5062419;28;20032;-73
2022/11/21 05:34:46;;;;;;;17.45;7.55;;;8.80;99.90;;;;;;5075636;28;20025;-74
2022/11/21 05:37:11;;;;;;;21.00;7.47;;;8.80;99.90;;;;;;5068249;28;20053;-73
2022/11/21 05:39:37;;;;;;;22.25;8.57;;;8.80;99.90;;;;;;5065475;28;20046;-73
2022/11/21 05:42:03;;;;;;;40.58;26.35;;;8.80;99.90;;;;;;5062967;28;20028;-73
2022/11/21 05:44:29;;;;;;;22.55;7.95;;;8.80;99.90;;;;;;5076438;28;20021;-73
2022/11/21 05:46:55;;;;;;;27.67;7.40;;;8.80;99.90;;;;;;5070755;28;20043;-73
2022/11/21 05:49:21;;;;;;;21.02;7.63;;;8.80;99.90;;;;;;5072074;28;20025;-73
2022/11/21 05:51:47;;;;;;;18.60;8.13;;;8.80;99.90;;;;;;5075025;28;20070;-73
2022/11/21 05:54:13;;;;;;;17.52;7.97;;;8.80;99.90;;;;;;5069996;28;20025;-73
2022/11/21 05:56:39;;;;;;;15.40;8.57;;;8.80;99.90;;;;;;5073595;28;20031;-73
2022/11/21 05:59:05;;;;;;;24.60;8.63;;;8.80;99.90;;;;;;5085307;28;20059;-73
2022/11/21 06:04:15;;;;;;;26.75;8.80;;;8.90;99.90;;;;;;5067355;28;20048;-74
2022/11/21 06:06:41;;;;;;;22.95;8.18;;;8.90;99.90;;;;;;5066910;28;20025;-71
2022/11/21 06:09:07;;;;;;;18.17;7.20;;;8.80;99.90;;;;;;5068327;28;20074;-71
2022/11/21 06:11:33;;;;;;;20.58;7.43;;;8.90;99.90;;;;;;5077731;28;20021;-72
2022/11/21 06:13:58;;;;;;;15.80;7.25;;;8.90;99.90;;;;;;5070637;28;20036;-71
2022/11/21 06:16:24;;;;;;;26.55;8.13;;;8.80;99.90;;;;;;5076560;28;20017;-72
2022/11/21 06:18:51;;;;;;;18.95;7.28;;;8.90;99.90;;;;;;5070274;28;20473;-72
2022/11/21 06:21:28;;;;;;;26.73;9.43;;;8.90;99.90;;;;;;5069256;28;20108;-72
2022/11/21 06:23:55;;;;;;;24.83;8.07;;;8.90;99.90;;;;;;5064810;28;20511;-72
2022/11/21 06:26:24;;;;;;;95.65;44.58;;;8.90;99.90;;;;;;5065408;28;20055;-72
2022/11/21 06:28:50;;;;;;;66.13;31.80;;;8.90;99.90;;;;;;5069599;28;20500;-73
2022/11/21 06:31:18;;;;;;;22.67;7.82;;;8.90;99.90;;;;;;5066165;28;20021;-72
2022/11/21 06:33:45;;;;;;;24.65;19.63;;;9.00;99.90;;;;;;5059825;28;20067;-73
2022/11/21 06:36:12;;;;;;;15.30;6.45;;;9.00;99.90;;;;;;5060485;28;20021;-72
2022/11/21 06:38:38;;;;;;;11.30;6.88;;;9.00;99.90;;;;;;5068168;28;20025;-73
2022/11/21 06:41:11;;;;;;;16.80;6.82;;;9.00;99.90;;;;;;5059004;28;20087;-72
2022/11/21 06:43:37;;;;;;;61.30;53.95;;;9.00;99.90;;;;;;5074642;28;20036;-73
2022/11/21 06:46:03;;;;;;;20.92;7.78;;;8.90;99.90;;;;;;5061324;28;20056;-73
2022/11/21 06:48:30;;;;;;;14.27;5.65;;;8.90;99.90;;;;;;5060339;28;20029;-73
2022/11/21 06:50:56;;;;;;;21.02;6.82;;;8.90;99.90;;;;;;5073075;28;20111;-72
2022/11/21 06:53:22;;;;;;;18.38;6.65;;;8.90;99.90;;;;;;5068827;28;20096;-72
2022/11/21 06:55:48;;;;;;;15.80;5.68;;;8.90;99.90;;;;;;5056844;28;20508;-73
2022/11/21 06:58:14;;;;;;;15.45;5.30;;;8.90;99.90;;;;;;5069929;28;20037;-73
2022/11/21 07:00:40;;;;;;;15.05;5.15;;;8.90;99.90;;;;;;5074249;28;20028;-74
2022/11/21 07:03:06;;;;;;;15.82;4.95;;;8.90;99.90;;;;;;5070303;28;20044;-74
2022/11/21 07:05:32;;;;;;;17.55;5.20;;;8.90;99.90;;;;;;5074254;28;20092;-73
2022/11/21 07:07:59;;;;;;;14.32;5.13;;;8.90;99.90;;;;;;5070642;28;20021;-74
2022/11/21 07:10:26;;;;;;;15.73;5.60;;;8.90;99.90;;;;;;5071016;28;20404;-74
2022/11/21 07:15:41;;;;;;;18.13;5.18;;;8.80;99.90;;;;;;5068147;28;20083;-74
2022/11/21 07:18:07;;;;;;;17.75;5.10;;;8.80;99.90;;;;;;5068793;28;20549;-74
2022/11/21 07:20:33;;;;;;;16.58;5.00;;;8.80;99.90;;;;;;5071486;28;20107;-74
2022/11/21 07:22:59;;;;;;;15.77;4.93;;;8.70;99.90;;;;;;5069955;28;20021;-73
2022/11/21 07:25:25;;;;;;;23.20;5.10;;;8.70;99.90;;;;;;5068098;28;20049;-74
2022/11/21 07:27:51;;;;;;;20.50;5.00;;;8.70;99.90;;;;;;5067632;28;20040;-74
2022/11/21 07:30:17;;;;;;;17.45;5.28;;;8.70;99.90;;;;;;5071027;28;20040;-74
2022/11/21 07:32:43;;;;;;;20.20;7.05;;;8.70;99.90;;;;;;5067909;28;20028;-73
2022/11/21 07:35:09;;;;;;;25.50;6.63;;;8.70;99.90;;;;;;5067239;28;20021;-74
2022/11/21 07:37:39;;;;;;;18.75;5.35;;;8.70;99.90;;;;;;5067307;28;20400;-74
2022/11/21 07:40:05;;;;;;;22.35;11.30;;;8.60;99.90;;;;;;5071760;28;20397;-74
2022/11/21 07:42:34;;;;;;;23.42;5.18;;;8.60;99.90;;;;;;5066650;28;20017;-74
2022/11/21 07:45:00;;;;;;;20.45;5.32;;;8.60;99.90;;;;;;5066557;28;20028;-74
2022/11/21 07:47:25;;;;;;;22.45;5.70;;;8.60;99.90;;;;;;5059583;28;20021;-75
2022/11/21 07:49:51;;;;;;;22.02;5.18;;;8.70;99.90;;;;;;5059909;28;20040;-75
2022/11/21 07:52:17;;;;;;;18.88;4.72;;;8.70;99.90;;;;;;5071860;28;20361;-74
2022/11/21 07:54:43;;;;;;;11.77;4.65;;;8.60;99.90;;;;;;5064708;28;20087;-73
2022/11/21 07:57:09;;;;;;;19.65;4.70;;;8.70;99.90;;;;;;5059405;28;20021;-73
2022/11/21 07:59:36;;;;;;;20.50;5.00;;;8.70;99.90;;;;;;5064147;28;20104;-74
2022/11/21 08:02:02;;;;;;;18.08;6.10;;;8.70;99.90;;;;;;5061665;28;20128;-74
2022/11/21 08:04:28;;;;;;;22.00;4.53;;;8.60;99.90;;;;;;5072638;28;20028;-73
2022/11/21 08:06:54;;;;;;;13.65;4.97;;;8.60;99.90;;;;;;5063510;28;20043;-74
2022/11/21 08:09:20;;;;;;;18.85;4.88;;;8.70;99.90;;;;;;5071008;28;20020;-75
2022/11/21 08:11:46;;;;;;;18.65;5.15;;;8.70;99.90;;;;;;5077961;28;20059;-74
2022/11/21 08:14:11;;;;;;;13.60;4.25;;;8.60;99.90;;;;;;5070684;28;20056;-74
2022/11/21 08:16:37;;;;;;;12.68;5.00;;;8.60;99.90;;;;;;5079550;28;20062;-74
2022/11/21 08:19:04;;;;;;;12.15;4.45;;;8.70;99.90;;;;;;5069175;28;20430;-75
2022/11/21 08:21:30;;;;;;;17.95;5.45;;;8.60;99.90;;;;;;5067350;28;20021;-75
2022/11/21 08:23:56;;;;;;;13.23;4.97;;;8.60;99.90;;;;;;5068890;28;20051;-76
2022/11/21 08:26:21;;;;;;;15.50;4.93;;;8.60;99.90;;;;;;5078833;28;20027;-76
2022/11/21 08:28:47;;;;;;;17.10;6.15;;;8.60;99.90;;;;;;5070227;28;20556;-76
2022/11/21 08:31:13;;;;;;;15.05;5.47;;;8.70;99.90;;;;;;5069937;28;20092;-75
2022/11/21 08:33:39;;;;;;;15.35;4.85;;;8.70;99.90;;;;;;5067705;28;20497;-75
2022/11/21 08:36:06;;;;;;;14.85;5.18;;;8.70;99.90;;;;;;5074336;28;20052;-76
2022/11/21 08:38:32;;;;;;;18.95;5.40;;;8.70;99.90;;;;;;5071137;28;20052;-77
2022/11/21 08:43:42;;;;;;;19.08;5.45;;;8.80;99.90;;;;;;5071703;28;20561;-77
2022/11/21 08:46:08;;;;;;;15.95;5.65;;;8.80;99.90;;;;;;5074334;28;20028;-76
2022/11/21 08:48:34;;;;;;;14.77;4.72;;;8.80;99.90;;;;;;5071454;28;20028;-76
2022/11/21 08:51:00;;;;;;;10.15;4.28;;;8.80;99.90;;;;;;5073541;28;20023;-76
2022/11/21 08:53:26;;;;;;;14.52;5.03;;;8.80;99.90;;;;;;5062842;28;20112;-77
2022/11/21 08:55:53;;;;;;;17.75;5.63;;;8.90;99.90;;;;;;5074386;28;20046;-77
2022/11/21 08:58:19;;;;;;;18.63;5.95;;;8.90;99.90;;;;;;5070848;28;20096;-76
2022/11/21 09:00:45;;;;;;;90.20;44.53;;;8.90;99.90;;;;;;5071883;28;20102;-76
2022/11/21 09:03:10;;;;;;;36.72;18.80;;;9.00;99.90;;;;;;5065074;28;20040;-76
2022/11/21 09:05:36;;;;;;;41.78;21.33;;;9.10;99.90;;;;;;5073844;28;20080;-76
2022/11/21 09:08:02;;;;;;;38.35;18.98;;;9.10;99.90;;;;;;5064588;28;20102;-76
2022/11/21 09:10:28;;;;;;;9.65;5.03;;;9.20;99.90;;;;;;5076570;28;20024;-76
2022/11/21 09:12:57;;;;;;;14.20;4.82;;;9.20;99.90;;;;;;5071813;28;20048;-77
2022/11/21 09:18:10;;;;;;;13.27;3.97;;;9.30;99.90;;;;;;5069517;28;20040;-77
2022/11/21 09:20:46;;;;;;;16.83;4.55;;;9.20;99.90;;;;;;5059526;28;20071;-75
2022/11/21 09:23:13;;;;;;;12.73;4.65;;;9.20;99.90;;;;;;5062715;28;20113;-74
2022/11/21 09:25:40;;;;;;;37.35;18.67;;;9.20;99.90;;;;;;5067470;28;20045;-75
2022/11/21 09:28:07;;;;;;;10.18;5.57;;;9.10;99.90;;;;;;5069760;28;20051;-74
2022/11/21 09:30:34;;;;;;;22.75;9.95;;;9.10;99.90;;;;;;5074319;28;20036;-73
2022/11/21 09:33:04;;;;;;;11.18;4.63;;;9.10;99.90;;;;;;5070256;28;20054;-74
2022/11/21 09:35:30;;;;;;;11.95;5.28;;;9.10;99.90;;;;;;5062672;28;20477;-74
2022/11/21 09:37:56;;;;;;;14.07;5.07;;;9.10;99.90;;;;;;5064656;28;20520;-73
2022/11/21 09:40:23;;;;;;;14.32;4.82;;;9.10;99.90;;;;;;5074566;28;20504;-75
2022/11/21 09:43:20;;;;;;;7.60;4.20;;;9.10;99.90;;;;;;5067077;28;20119;-75
2022/11/21 09:46:16;;;;;;;11.82;4.40;;;9.10;99.90;;;;;;5075835;28;20016;-75
2022/11/21 09:48:57;;;;;;;16.52;4.97;;;9.10;99.90;;;;;;5071857;28;20040;-74
2022/11/21 09:51:26;;;;;;;7.95;3.90;;;9.20;99.90;;;;;;5070719;28;20025;-75
2022/11/21 09:53:57;;;;;;;12.70;6.35;;;9.10;99.90;;;;;;5066924;28;20040;-75
2022/11/21 09:56:25;;;;;;;10.30;4.80;;;9.00;99.90;;;;;;5076810;28;20044;-74
2022/11/21 09:58:50;;;;;;;8.77;4.00;;;9.00;99.90;;;;;;5064966;28;20086;-75
2022/11/21 10:01:16;;;;;;;18.23;5.82;;;9.00;99.90;;;;;;5076698;28;20036;-74
2022/11/21 10:03:51;;;;;;;19.13;4.75;;;9.00;99.90;;;;;;5067058;28;20028;-75
2022/11/21 10:06:21;;;;;;;17.67;6.47;;;9.00;99.90;;;;;;5068944;28;20120;-75
2022/11/21 10:09:18;;;;;;;14.13;4.65;;;9.10;99.90;;;;;;5063024;28;20040;-74
2022/11/21 10:15:03;;;;;;;17.77;5.13;;;9.20;99.90;;;;;;5064274;28;20450;-75
2022/11/21 10:18:03;;;;;;;15.60;6.93;;;9.20;99.90;;;;;;5074607;28;20012;-74
2022/11/21 10:20:35;;;;;;;151.17;96.00;;;9.20;99.90;;;;;;5066409;28;20033;-74
2022/11/21 10:23:26;;;;;;;37.25;13.00;;;9.20;99.90;;;;;;5060254;28;20033;-74
2022/11/21 10:26:05;;;;;;;68.97;22.10;;;9.30;99.90;;;;;;5071601;28;20098;-74
2022/11/21 10:28:49;;;;;;;12.93;4.63;;;9.30;99.90;;;;;;5067132;28;20025;-74
2022/11/21 10:31:16;;;;;;;25.60;9.43;;;9.20;99.90;;;;;;5077652;28;20060;-75
2022/11/21 10:33:42;;;;;;;16.08;4.63;;;9.30;99.90;;;;;;5062264;28;20021;-74
2022/11/21 10:36:28;;;;;;;27.83;11.85;;;9.30;99.90;;;;;;5073643;28;20025;-75
2022/11/21 10:39:17;;;;;;;16.50;5.10;;;9.40;99.90;;;;;;5081276;28;20120;-74
2022/11/21 10:41:57;;;;;;;12.45;5.55;;;9.60;99.90;;;;;;5074010;28;20040;-75
2022/11/21 10:47:26;;;;;;;16.23;4.93;;;9.90;99.90;;;;;;5061724;28;20503;-74
2022/11/21 10:50:31;;;;;;;13.57;4.78;;;10.00;99.90;;;;;;5072095;28;20032;-74
2022/11/21 10:56:02;;;;;;;18.45;6.57;;;10.10;99.90;;;;;;5064862;28;20024;-74
2022/11/21 10:58:50;;;;;;;17.55;4.10;;;10.10;99.90;;;;;;5069213;28;20025;-73
2022/11/21 11:01:27;;;;;;;19.33;5.53;;;10.10;99.90;;;;;;5061417;28;20028;-74
2022/11/21 11:04:17;;;;;;;13.88;5.78;;;10.10;99.90;;;;;;5068149;28;20063;-73
2022/11/21 11:06:46;;;;;;;11.30;6.07;;;10.00;99.90;;;;;;5053148;28;20048;-74
2022/11/21 11:09:29;;;;;;;14.35;5.63;;;10.00;99.90;;;;;;5073866;28;20543;-73
2022/11/21 11:12:20;;;;;;;10.63;4.97;;;10.00;99.90;;;;;;5074544;28;20032;-73
2022/11/21 11:14:55;;;;;;;11.98;5.15;;;10.10;99.90;;;;;;5064887;28;20108;-73
2022/11/21 11:17:32;;;;;;;13.02;5.22;;;10.20;99.90;;;;;;5072140;28;20076;-73
2022/11/21 11:20:27;;;;;;;14.57;4.65;;;10.30;99.90;;;;;;5071334;28;20020;-74
2022/11/21 11:22:53;;;;;;;9.18;3.75;;;10.40;99.90;;;;;;5075087;28;20029;-75
2022/11/21 11:25:19;;;;;;;14.50;5.55;;;10.40;99.90;;;;;;5071170;28;20052;-75
2022/11/21 11:27:44;;;;;;;14.38;4.78;;;10.40;99.90;;;;;;5062870;28;20473;-74
2022/11/21 11:30:15;;;;;;;13.05;4.35;;;10.50;99.90;;;;;;5067770;28;20035;-74
2022/11/21 11:32:41;;;;;;;12.43;3.72;;;10.70;99.90;;;;;;5067548;28;20025;-74
2022/11/21 11:35:16;;;;;;;13.02;4.47;;;10.80;99.90;;;;;;5073476;28;20370;-74
2022/11/21 11:37:50;;;;;;;13.60;4.85;;;11.10;99.90;;;;;;5066526;28;20439;-74
2022/11/21 11:40:37;;;;;;;13.05;6.72;;;11.20;99.90;;;;;;5073814;28;20564;-74
2022/11/21 11:49:12;;;;;;;11.10;3.92;;;11.70;99.90;;;;;;5070735;28;20075;-74
2022/11/21 11:51:46;;;;;;;10.18;4.63;;;11.70;99.90;;;;;;5064398;28;20175;-74
2022/11/21 11:54:29;;;;;;;11.93;5.22;;;11.70;99.90;;;;;;5085972;28;20043;-74
2022/11/21 11:56:58;;;;;;;11.75;4.40;;;11.90;99.90;;;;;;5067417;28;20538;-74
2022/11/21 11:59:37;;;;;;;9.80;4.25;;;11.90;99.90;;;;;;5065691;28;20029;-74
2022/11/21 12:02:32;;;;;;;12.27;3.92;;;11.80;99.90;;;;;;5060919;28;20154;-74
2022/11/21 12:05:10;;;;;;;7.07;3.53;;;11.80;99.90;;;;;;5064224;28;20017;-74
2022/11/21 12:07:50;;;;;;;8.80;4.40;;;11.90;99.90;;;;;;5071654;28;20038;-74
2022/11/21 12:13:38;;;;;;;7.45;3.42;;;12.10;99.90;;;;;;5067696;28;20527;-75
2022/11/21 12:16:11;;;;;;;7.68;3.50;;;12.00;99.90;;;;;;5064089;28;20432;-74
2022/11/21 12:18:59;;;;;;;11.70;3.35;;;11.90;99.90;;;;;;5069831;28;20028;-74
2022/11/21 12:21:26;;;;;;;6.22;3.47;;;11.90;99.90;;;;;;5068920;28;20052;-73
2022/11/21 12:23:57;;;;;;;11.63;4.57;;;11.70;99.90;;;;;;5069505;28;20048;-74
2022/11/21 12:26:51;;;;;;;4.97;3.45;;;11.70;99.90;;;;;;5064081;28;20028;-74
2022/11/21 12:29:48;;;;;;;9.27;4.40;;;11.60;99.90;;;;;;5072031;28;20036;-74
2022/11/21 12:32:29;;;;;;;7.53;3.60;;;11.50;99.90;;;;;;5059647;28;20035;-74
2022/11/21 12:35:13;;;;;;;11.30;3.80;;;11.40;99.90;;;;;;5070036;28;20021;-74
2022/11/21 12:37:52;;;;;;;12.25;3.75;;;11.50;99.90;;;;;;5059676;28;20368;-73
2022/11/21 12:40:24;;;;;;;8.93;4.25;;;11.50;99.90;;;;;;5069131;28;20053;-74
2022/11/21 12:43:20;;;;;;;5.40;3.80;;;11.60;99.90;;;;;;5060924;28;20120;-73
2022/11/21 12:46:13;;;;;;;9.75;3.58;;;11.70;99.90;;;;;;5061091;28;20100;-74
2022/11/21 12:55:31;;;;;;;7.80;4.03;;;11.80;99.90;;;;;;5063845;28;20456;-73
2022/11/21 12:58:04;;;;;;;5.47;3.83;;;11.80;99.90;;;;;;5063687;28;20051;-73
2022/11/21 13:00:53;;;;;;;8.55;3.65;;;11.80;99.90;;;;;;5070964;28;20058;-73
2022/11/21 13:03:43;;;;;;;10.60;4.60;;;11.90;99.90;;;;;;5071716;28;20524;-73
2022/11/21 13:06:37;;;;;;;11.52;4.30;;;11.90;99.90;;;;;;5071750;28;20029;-74
2022/11/21 13:09:07;;;;;;;7.28;3.13;;;11.90;99.90;;;;;;5065634;28;20123;-73
2022/11/21 13:11:58;;;;;;;3.17;2.85;;;11.90;99.90;;;;;;5076142;28;20504;-73
2022/11/21 13:14:32;;;;;;;8.25;3.55;;;11.90;99.90;;;;;;5065160;28;20025;-73
2022/11/21 13:17:22;;;;;;;5.28;3.30;;;12.00;99.90;;;;;;5083564;28;20021;-73
2022/11/21 13:19:59;;;;;;;5.13;3.20;;;12.00;99.90;;;;;;5066738;28;20028;-73
2022/11/21 13:22:37;;;;;;;6.72;3.88;;;12.10;99.90;;;;;;5069107;28;20115;-73
2022/11/21 13:25:11;;;;;;;11.30;3.97;;;12.00;99.90;;;;;;5082278;28;20044;-73
2022/11/21 13:27:41;;;;;;;5.88;3.72;;;12.00;99.90;;;;;;5068135;28;20029;-73
2022/11/21 13:30:10;;;;;;;7.70;4.03;;;12.00;99.90;;;;;;5065263;28;20082;-73
2022/11/21 13:32:43;;;;;;;6.90;4.07;;;12.10;99.90;;;;;;5064706;28;20029;-73
2022/11/21 13:35:37;;;;;;;4.22;3.20;;;12.00;99.90;;;;;;5073543;28;20154;-73